Aviation Digital Data Service (ADDS)

Output produced by METARs form (2209 UTC 20 January 2021)
found at http://aviationweather.gov/metar/data/
 
TAF EPDA 201700Z 2018/2103 20012KT 9999 BKN030